createdAt,value
2022-09-27T00:00:26.777Z,100.00
2022-09-27T00:02:53.427Z,100.00
2022-09-27T00:05:20.152Z,100.00
2022-09-27T00:07:48.221Z,100.00
2022-09-27T00:10:15.228Z,100.00
2022-09-27T00:12:41.810Z,100.00
2022-09-27T00:15:10.087Z,100.00
2022-09-27T00:17:36.786Z,100.00
2022-09-27T00:20:05.700Z,100.00
2022-09-27T00:22:32.337Z,100.00
2022-09-27T00:25:00.286Z,100.00
2022-09-27T00:27:27.848Z,100.00
2022-09-27T00:29:54.456Z,100.00
2022-09-27T00:32:21.037Z,100.00
2022-09-27T00:34:47.661Z,100.00
2022-09-27T00:37:14.264Z,100.00
2022-09-27T00:39:40.816Z,100.00
2022-09-27T00:42:11.701Z,100.00
2022-09-27T00:45:05.867Z,100.00
2022-09-27T00:47:40.738Z,100.00
2022-09-27T00:50:15.375Z,100.00
2022-09-27T00:52:48.680Z,100.00
2022-09-27T00:55:19.311Z,100.00
2022-09-27T00:57:48.424Z,100.00
2022-09-27T01:00:15.623Z,100.00
2022-09-27T01:02:45.762Z,100.00
2022-09-27T01:05:15.001Z,100.00
2022-09-27T01:07:41.647Z,100.00
2022-09-27T01:10:09.047Z,100.00
2022-09-27T01:12:48.114Z,100.00
2022-09-27T01:15:25.941Z,100.00
2022-09-27T01:18:07.386Z,100.00
2022-09-27T01:21:07.139Z,100.00
2022-09-27T01:24:09.326Z,100.00
2022-09-27T01:26:56.784Z,100.00
2022-09-27T01:29:32.819Z,100.00
2022-09-27T01:32:05.874Z,100.00
2022-09-27T01:34:40.481Z,100.00
2022-09-27T01:37:12.747Z,100.00
2022-09-27T01:39:50.062Z,100.00
2022-09-27T01:42:23.011Z,100.00
2022-09-27T01:44:55.463Z,100.00
2022-09-27T01:47:28.943Z,100.00
2022-09-27T01:50:01.590Z,100.00
2022-09-27T01:52:33.313Z,100.00
2022-09-27T01:55:03.160Z,100.00
2022-09-27T01:57:35.257Z,100.00
2022-09-27T02:00:05.647Z,100.00
2022-09-27T02:02:39.150Z,100.00
2022-09-27T02:05:09.491Z,100.00
2022-09-27T02:07:43.213Z,100.00
2022-09-27T02:10:13.205Z,100.00
2022-09-27T02:12:47.104Z,100.00
2022-09-27T02:15:14.674Z,100.00
2022-09-27T02:17:47.881Z,100.00
2022-09-27T02:20:24.745Z,100.00
2022-09-27T02:22:57.383Z,100.00
2022-09-27T02:25:28.606Z,100.00
2022-09-27T02:28:00.883Z,100.00
2022-09-27T02:30:27.563Z,100.00
2022-09-27T02:32:55.593Z,100.00
2022-09-27T02:35:26.631Z,100.00
2022-09-27T02:37:53.454Z,100.00
2022-09-27T02:40:20.143Z,100.00
2022-09-27T02:42:46.954Z,100.00
2022-09-27T02:45:15.877Z,100.00
2022-09-27T02:48:09.489Z,100.00
2022-09-27T02:50:57.029Z,100.00
2022-09-27T02:53:39.089Z,100.00
2022-09-27T02:56:13.936Z,100.00
2022-09-27T02:58:53.460Z,100.00
2022-09-27T03:01:28.987Z,100.00
2022-09-27T03:04:03.909Z,100.00
2022-09-27T03:06:32.098Z,100.00
2022-09-27T03:08:58.691Z,100.00
2022-09-27T03:11:25.505Z,100.00
2022-09-27T03:14:08.013Z,100.00
2022-09-27T03:16:35.755Z,100.00
2022-09-27T03:19:03.735Z,100.00
2022-09-27T03:21:30.287Z,100.00
2022-09-27T03:23:57.195Z,100.00
2022-09-27T03:26:23.774Z,100.00
2022-09-27T03:28:50.334Z,100.00
2022-09-27T03:31:17.470Z,100.00
2022-09-27T03:33:44.133Z,100.00
2022-09-27T03:36:12.081Z,100.00
2022-09-27T03:38:38.675Z,100.00
2022-09-27T03:41:05.425Z,100.00
2022-09-27T03:43:31.975Z,100.00
2022-09-27T03:45:58.587Z,100.00
2022-09-27T03:48:28.123Z,100.00
2022-09-27T03:50:54.922Z,100.00
2022-09-27T03:53:22.912Z,100.00
2022-09-27T03:55:49.472Z,100.00
2022-09-27T03:58:16.462Z,100.00
2022-09-27T04:00:43.018Z,100.00
2022-09-27T04:03:09.812Z,100.00
2022-09-27T04:05:36.403Z,100.00
2022-09-27T04:08:02.996Z,100.00
2022-09-27T04:10:30.976Z,100.00
2022-09-27T04:12:57.545Z,100.00
2022-09-27T04:15:24.113Z,100.00
2022-09-27T04:17:51.160Z,100.00
2022-09-27T04:20:17.732Z,100.00
2022-09-27T04:22:44.359Z,100.00
2022-09-27T04:25:11.496Z,100.00
2022-09-27T04:27:43.932Z,100.00
2022-09-27T04:30:11.572Z,100.00
2022-09-27T04:32:41.324Z,100.00
2022-09-27T04:35:08.919Z,100.00
2022-09-27T04:37:35.537Z,100.00
2022-09-27T04:40:02.522Z,100.00
2022-09-27T04:42:29.352Z,100.00
2022-09-27T04:44:57.292Z,100.00
2022-09-27T04:47:23.834Z,100.00
2022-09-27T04:49:50.402Z,100.00
2022-09-27T04:52:17.079Z,100.00
2022-09-27T04:54:43.681Z,100.00
2022-09-27T04:57:10.294Z,100.00
2022-09-27T04:59:36.869Z,100.00
2022-09-27T05:02:04.884Z,100.00
2022-09-27T05:04:31.469Z,100.00
2022-09-27T05:06:58.165Z,100.00
2022-09-27T05:09:24.759Z,100.00
2022-09-27T05:11:51.283Z,100.00
2022-09-27T05:14:17.960Z,100.00
2022-09-27T05:16:44.593Z,100.00
2022-09-27T05:19:12.572Z,100.00
2022-09-27T05:21:41.241Z,100.00
2022-09-27T05:24:07.780Z,100.00
2022-09-27T05:26:34.310Z,100.00
2022-09-27T05:29:01.036Z,100.00
2022-09-27T05:31:27.795Z,100.00
2022-09-27T05:33:54.412Z,100.00
2022-09-27T05:36:22.343Z,100.00
2022-09-27T05:38:49.169Z,100.00
2022-09-27T05:41:15.858Z,100.00
2022-09-27T05:43:42.451Z,100.00
2022-09-27T05:46:09.082Z,100.00
2022-09-27T05:48:35.740Z,100.00
2022-09-27T05:51:02.466Z,100.00
2022-09-27T05:53:30.570Z,100.00
2022-09-27T05:56:01.354Z,100.00
2022-09-27T05:58:28.019Z,100.00
2022-09-27T06:00:54.586Z,100.00
2022-09-27T06:03:21.258Z,100.00
2022-09-27T06:05:51.205Z,100.00
2022-09-27T06:08:18.163Z,100.00
2022-09-27T06:10:48.196Z,100.00
2022-09-27T06:13:16.176Z,100.00
2022-09-27T06:15:44.691Z,100.00
2022-09-27T06:18:13.158Z,100.00
2022-09-27T06:20:40.476Z,100.00
2022-09-27T06:23:08.727Z,100.00
2022-09-27T06:25:35.699Z,100.00
2022-09-27T06:28:04.565Z,100.00
2022-09-27T06:30:31.704Z,100.00
2022-09-27T06:32:59.591Z,100.00
2022-09-27T06:35:29.646Z,100.00
2022-09-27T06:37:56.365Z,100.00
2022-09-27T06:40:23.808Z,100.00
2022-09-27T06:42:50.404Z,100.00
2022-09-27T06:45:18.677Z,100.00
2022-09-27T06:47:45.373Z,100.00
2022-09-27T06:50:12.174Z,100.00
2022-09-27T06:52:46.369Z,100.00
2022-09-27T06:55:13.152Z,100.00
2022-09-27T06:57:39.877Z,100.00
2022-09-27T07:00:07.139Z,100.00
2022-09-27T07:02:35.095Z,100.00
2022-09-27T07:05:01.992Z,100.00
2022-09-27T07:07:30.784Z,100.00
2022-09-27T07:09:57.396Z,100.00
2022-09-27T07:12:24.096Z,100.00
2022-09-27T07:14:51.012Z,100.00
2022-09-27T07:17:17.583Z,100.00
2022-09-27T07:19:46.248Z,100.00
2022-09-27T07:22:13.002Z,100.00
2022-09-27T07:24:39.689Z,100.00
2022-09-27T07:27:06.323Z,100.00
2022-09-27T07:29:33.100Z,100.00
2022-09-27T07:31:59.747Z,100.00
2022-09-27T07:34:26.366Z,100.00
2022-09-27T07:36:59.037Z,100.00
2022-09-27T07:39:25.687Z,100.00
2022-09-27T07:41:52.417Z,100.00
2022-09-27T07:44:19.093Z,100.00
2022-09-27T07:46:45.836Z,100.00
2022-09-27T07:49:12.437Z,100.00
2022-09-27T07:51:39.139Z,100.00
2022-09-27T07:54:08.844Z,100.00
2022-09-27T07:56:35.798Z,100.00
2022-09-27T07:59:02.478Z,100.00
2022-09-27T08:01:29.404Z,100.00
2022-09-27T08:03:56.123Z,100.00
2022-09-27T08:06:22.732Z,100.00
2022-09-27T08:08:49.374Z,100.00
2022-09-27T08:11:18.273Z,100.00
2022-09-27T08:13:46.129Z,100.00
2022-09-27T08:16:12.837Z,100.00
2022-09-27T08:18:39.707Z,100.00
2022-09-27T08:21:06.459Z,100.00
2022-09-27T08:23:33.236Z,100.00
2022-09-27T08:26:00.116Z,100.00
2022-09-27T08:28:28.460Z,100.00
2022-09-27T08:30:57.643Z,100.00
2022-09-27T08:33:31.309Z,100.00
2022-09-27T08:35:59.342Z,100.00
2022-09-27T08:38:28.219Z,100.00
2022-09-27T08:40:57.796Z,100.00
2022-09-27T08:43:36.509Z,100.00
2022-09-27T08:46:23.249Z,100.00
2022-09-27T08:48:58.967Z,100.00
2022-09-27T08:51:31.746Z,100.00
2022-09-27T08:54:03.546Z,100.00
2022-09-27T08:56:31.582Z,100.00
2022-09-27T08:59:06.223Z,100.00
2022-09-27T09:01:35.563Z,100.00
2022-09-27T09:04:03.948Z,100.00
2022-09-27T09:06:40.076Z,100.00
2022-09-27T09:09:19.879Z,100.00
2022-09-27T09:11:56.079Z,100.00
2022-09-27T09:14:46.986Z,100.00
2022-09-27T09:17:24.885Z,100.00
2022-09-27T09:20:03.707Z,100.00
2022-09-27T09:22:43.253Z,100.00
2022-09-27T09:25:29.147Z,100.00
2022-09-27T09:28:10.601Z,100.00
2022-09-27T09:30:49.572Z,100.00
2022-09-27T09:33:25.560Z,100.00
2022-09-27T09:35:57.134Z,100.00
2022-09-27T09:38:33.370Z,100.00
2022-09-27T09:41:08.157Z,100.00
2022-09-27T09:43:42.890Z,100.00
2022-09-27T09:46:18.131Z,100.00
2022-09-27T09:48:55.175Z,100.00
2022-09-27T09:51:31.083Z,100.00
2022-09-27T09:54:02.951Z,100.00
2022-09-27T09:56:33.287Z,100.00
2022-09-27T09:59:05.381Z,100.00
2022-09-27T10:01:40.867Z,100.00
2022-09-27T10:04:09.533Z,100.00
2022-09-27T10:06:40.575Z,100.00
2022-09-27T10:09:11.947Z,100.00
2022-09-27T10:14:26.877Z,100.00
2022-09-27T10:16:59.533Z,100.00
2022-09-27T10:19:29.320Z,100.00
2022-09-27T10:22:01.664Z,100.00
2022-09-27T10:24:28.584Z,100.00
2022-09-27T10:26:59.656Z,100.00
2022-09-27T10:29:34.889Z,100.00
2022-09-27T10:32:22.069Z,100.00
2022-09-27T10:34:48.777Z,100.00
2022-09-27T10:37:17.921Z,100.00
2022-09-27T10:39:45.797Z,100.00
2022-09-27T10:42:30.830Z,100.00
2022-09-27T10:44:57.713Z,100.00
2022-09-27T10:47:28.358Z,100.00
2022-09-27T10:50:04.994Z,100.00
2022-09-27T10:52:31.840Z,100.00
2022-09-27T10:55:01.598Z,100.00
2022-09-27T10:57:30.090Z,100.00
2022-09-27T11:02:29.360Z,100.00
2022-09-27T11:05:14.725Z,100.00
2022-09-27T11:07:49.544Z,100.00
2022-09-27T11:10:25.733Z,100.00
2022-09-27T11:13:11.917Z,100.00
2022-09-27T11:15:51.986Z,100.00
2022-09-27T11:18:30.423Z,100.00
2022-09-27T11:21:06.591Z,100.00
2022-09-27T11:24:04.180Z,100.00
2022-09-27T11:26:46.698Z,98.92
2022-09-27T11:29:25.289Z,100.00
2022-09-27T11:32:07.732Z,100.00
2022-09-27T11:34:56.103Z,99.14
2022-09-27T11:37:31.429Z,100.00
2022-09-27T11:40:11.654Z,100.00
2022-09-27T11:43:03.156Z,100.00
2022-09-27T11:46:14.253Z,100.00
2022-09-27T11:48:50.798Z,100.00
2022-09-27T11:51:39.378Z,100.00
2022-09-27T11:54:30.183Z,100.00
2022-09-27T11:57:06.377Z,100.00
2022-09-27T11:59:50.751Z,100.00
2022-09-27T12:02:37.310Z,100.00
2022-09-27T12:05:28.191Z,100.00
2022-09-27T12:08:09.065Z,100.00
2022-09-27T12:10:38.496Z,100.00
2022-09-27T12:13:06.067Z,100.00
2022-09-27T12:15:42.701Z,100.00
2022-09-27T12:18:16.906Z,100.00
2022-09-27T12:20:48.246Z,100.00
2022-09-27T12:23:22.191Z,100.00
2022-09-27T12:25:51.102Z,99.46
2022-09-27T12:28:28.381Z,100.00
2022-09-27T12:31:24.434Z,98.90
2022-09-27T12:33:53.781Z,99.49
2022-09-27T12:36:28.150Z,98.26
2022-09-27T12:39:04.279Z,95.81
2022-09-27T12:41:42.453Z,99.95
2022-09-27T12:44:10.279Z,92.37
2022-09-27T12:46:50.738Z,89.23
2022-09-27T12:49:26.195Z,90.55
2022-09-27T12:52:04.843Z,87.47
2022-09-27T12:54:51.607Z,87.91
2022-09-27T12:57:30.189Z,88.44
2022-09-27T13:00:08.857Z,86.09
2022-09-27T13:03:14.705Z,86.68
2022-09-27T13:06:12.071Z,93.08
2022-09-27T13:09:20.222Z,100.00
2022-09-27T13:11:57.119Z,100.00
2022-09-27T13:14:26.480Z,100.00
2022-09-27T13:16:52.898Z,100.00
2022-09-27T13:19:39.160Z,100.00
2022-09-27T13:22:07.822Z,100.00
2022-09-27T13:24:46.529Z,100.00
2022-09-27T13:27:37.297Z,100.00
2022-09-27T13:30:46.088Z,100.00
2022-09-27T13:33:43.953Z,100.00
2022-09-27T13:36:30.104Z,100.00
2022-09-27T13:39:05.415Z,100.00
2022-09-27T13:41:54.070Z,100.00
2022-09-27T13:44:31.660Z,95.66
2022-09-27T13:47:01.660Z,90.01
2022-09-27T13:49:33.370Z,96.72
2022-09-27T13:52:03.823Z,97.35
2022-09-27T13:54:40.490Z,97.23
2022-09-27T13:57:46.105Z,100.00
2022-09-27T14:00:19.479Z,100.00
2022-09-27T14:03:04.266Z,100.00
2022-09-27T14:05:35.630Z,100.00
2022-09-27T14:08:04.522Z,100.00
2022-09-27T14:10:32.076Z,100.00
2022-09-27T14:13:03.174Z,100.00
2022-09-27T14:15:32.160Z,100.00
2022-09-27T14:17:59.281Z,100.00
2022-09-27T14:20:35.180Z,100.00
2022-09-27T14:23:03.143Z,100.00
2022-09-27T14:25:33.982Z,100.00
2022-09-27T14:28:02.743Z,100.00
2022-09-27T14:30:31.292Z,100.00
2022-09-27T14:32:57.994Z,100.00
2022-09-27T14:35:25.998Z,100.00
2022-09-27T14:37:54.054Z,100.00
2022-09-27T14:40:28.765Z,100.00
2022-09-27T14:42:59.403Z,100.00
2022-09-27T14:45:30.616Z,100.00
2022-09-27T14:47:58.514Z,100.00
2022-09-27T14:50:26.639Z,100.00
2022-09-27T14:52:53.252Z,100.00
2022-09-27T14:55:21.974Z,100.00
2022-09-27T14:57:52.070Z,100.00
2022-09-27T15:00:21.484Z,100.00
2022-09-27T15:02:48.609Z,100.00
2022-09-27T15:05:18.805Z,100.00
2022-09-27T15:07:48.121Z,100.00
2022-09-27T15:10:17.081Z,100.00
2022-09-27T15:12:45.597Z,100.00
2022-09-27T15:15:15.299Z,100.00
2022-09-27T15:17:42.646Z,100.00
2022-09-27T15:20:22.999Z,100.00
2022-09-27T15:22:49.623Z,100.00
2022-09-27T15:25:20.408Z,100.00
2022-09-27T15:27:52.905Z,100.00
2022-09-27T15:30:27.770Z,100.00
2022-09-27T15:32:56.567Z,100.00
2022-09-27T15:35:27.387Z,100.00
2022-09-27T15:38:11.844Z,100.00
2022-09-27T15:41:07.797Z,100.00
2022-09-27T15:43:36.959Z,100.00
2022-09-27T15:46:05.497Z,100.00
2022-09-27T15:48:33.156Z,100.00
2022-09-27T15:51:01.657Z,100.00
2022-09-27T15:53:44.072Z,100.00
2022-09-27T15:56:13.948Z,100.00
2022-09-27T15:58:41.079Z,100.00
2022-09-27T16:01:07.682Z,100.00
2022-09-27T16:03:34.811Z,100.00
2022-09-27T16:06:04.110Z,100.00
2022-09-27T16:08:30.836Z,100.00
2022-09-27T16:10:59.021Z,100.00
2022-09-27T16:13:32.403Z,100.00
2022-09-27T16:15:59.682Z,100.00
2022-09-27T16:18:30.280Z,100.00
2022-09-27T16:20:57.735Z,100.00
2022-09-27T16:23:25.810Z,100.00
2022-09-27T16:25:52.603Z,100.00
2022-09-27T16:28:19.298Z,100.00
2022-09-27T16:30:45.910Z,100.00
2022-09-27T16:33:12.461Z,100.00
2022-09-27T16:35:39.606Z,100.00
2022-09-27T16:38:06.208Z,100.00
2022-09-27T16:40:34.219Z,100.00
2022-09-27T16:43:00.826Z,100.00
2022-09-27T16:45:27.405Z,100.00
2022-09-27T16:47:54.024Z,100.00
2022-09-27T16:50:20.566Z,100.00
2022-09-27T16:52:47.298Z,100.00
2022-09-27T16:55:14.483Z,100.00
2022-09-27T16:57:42.437Z,100.00
2022-09-27T17:00:10.437Z,100.00
2022-09-27T17:02:37.000Z,100.00
2022-09-27T17:05:04.438Z,100.00
2022-09-27T17:07:31.160Z,100.00
2022-09-27T17:09:57.775Z,100.00
2022-09-27T17:12:24.409Z,100.00
2022-09-27T17:14:52.421Z,100.00
2022-09-27T17:17:19.014Z,100.00
2022-09-27T17:19:45.666Z,100.00
2022-09-27T17:22:12.284Z,100.00
2022-09-27T17:24:38.841Z,100.00
2022-09-27T17:27:05.438Z,100.00
2022-09-27T17:29:31.998Z,100.00
2022-09-27T17:32:00.197Z,100.00
2022-09-27T17:34:27.012Z,100.00
2022-09-27T17:36:53.706Z,100.00
2022-09-27T17:39:21.334Z,100.00
2022-09-27T17:41:49.194Z,100.00
2022-09-27T17:44:17.587Z,100.00
2022-09-27T17:46:45.682Z,100.00
2022-09-27T17:49:14.136Z,100.00
2022-09-27T17:51:42.070Z,100.00
2022-09-27T17:54:10.692Z,100.00
2022-09-27T17:56:37.810Z,100.00
2022-09-27T17:59:05.378Z,100.00
2022-09-27T18:01:32.453Z,100.00
2022-09-27T18:04:00.757Z,100.00
2022-09-27T18:06:28.776Z,100.00
2022-09-27T18:08:56.449Z,100.00
2022-09-27T18:11:25.749Z,100.00
2022-09-27T18:13:52.367Z,100.00
2022-09-27T18:16:19.356Z,100.00
2022-09-27T18:18:48.262Z,100.00
2022-09-27T18:21:16.591Z,100.00
2022-09-27T18:23:44.707Z,100.00
2022-09-27T18:26:11.688Z,100.00
2022-09-27T18:28:40.494Z,100.00
2022-09-27T18:31:09.760Z,100.00
2022-09-27T18:33:37.104Z,100.00
2022-09-27T18:36:05.514Z,100.00
2022-09-27T18:38:32.484Z,100.00
2022-09-27T18:41:06.603Z,100.00
2022-09-27T18:43:38.602Z,100.00
2022-09-27T18:46:30.969Z,100.00
2022-09-27T18:48:53.636Z,100.00
2022-09-27T18:51:22.378Z,100.00
2022-09-27T18:53:48.955Z,100.00
2022-09-27T18:56:17.324Z,100.00
2022-09-27T18:58:45.187Z,100.00
2022-09-27T19:01:13.863Z,100.00
2022-09-27T19:03:40.794Z,100.00
2022-09-27T19:06:11.999Z,100.00
2022-09-27T19:08:38.667Z,100.00
2022-09-27T19:11:06.098Z,100.00
2022-09-27T19:13:43.734Z,100.00
2022-09-27T19:16:15.328Z,100.00
2022-09-27T19:18:42.069Z,100.00
2022-09-27T19:21:11.845Z,100.00
2022-09-27T19:23:39.175Z,100.00
2022-09-27T19:26:07.528Z,100.00
2022-09-27T19:28:37.651Z,100.00
2022-09-27T19:31:05.671Z,100.00
2022-09-27T19:33:32.805Z,100.00
2022-09-27T19:36:00.594Z,100.00
2022-09-27T19:38:29.461Z,100.00
2022-09-27T19:40:56.238Z,100.00
2022-09-27T19:43:23.035Z,100.00
2022-09-27T19:45:50.943Z,100.00
2022-09-27T19:48:17.558Z,100.00
2022-09-27T19:50:44.124Z,100.00
2022-09-27T19:53:10.669Z,100.00
2022-09-27T19:55:37.249Z,100.00
2022-09-27T19:58:03.815Z,100.00
2022-09-27T20:00:30.396Z,100.00
2022-09-27T20:02:58.410Z,100.00
2022-09-27T20:05:25.039Z,100.00
2022-09-27T20:07:51.565Z,100.00
2022-09-27T20:10:18.143Z,100.00
2022-09-27T20:12:44.663Z,100.00
2022-09-27T20:15:11.237Z,100.00
2022-09-27T20:17:37.810Z,100.00
2022-09-27T20:20:07.125Z,100.00
2022-09-27T20:22:34.768Z,100.00
2022-09-27T20:25:01.371Z,100.00
2022-09-27T20:27:27.894Z,100.00
2022-09-27T20:29:54.421Z,100.00
2022-09-27T20:32:27.653Z,100.00
2022-09-27T20:34:54.829Z,100.00
2022-09-27T20:37:22.829Z,100.00
2022-09-27T20:39:49.400Z,100.00
2022-09-27T20:42:15.940Z,100.00
2022-09-27T20:44:42.578Z,100.00
2022-09-27T20:47:09.121Z,100.00
2022-09-27T20:49:35.676Z,100.00
2022-09-27T20:52:02.332Z,100.00
2022-09-27T20:54:30.270Z,100.00
2022-09-27T20:56:56.828Z,100.00
2022-09-27T20:59:23.616Z,100.00
2022-09-27T21:01:51.896Z,100.00
2022-09-27T21:04:19.944Z,100.00
2022-09-27T21:06:46.793Z,100.00
2022-09-27T21:09:14.280Z,100.00
2022-09-27T21:11:43.516Z,100.00
2022-09-27T21:14:10.313Z,100.00
2022-09-27T21:16:37.006Z,100.00
2022-09-27T21:19:03.650Z,100.00
2022-09-27T21:21:30.674Z,100.00
2022-09-27T21:23:59.170Z,100.00
2022-09-27T21:26:34.274Z,100.00
2022-09-27T21:29:07.717Z,100.00
2022-09-27T21:31:35.037Z,100.00
2022-09-27T21:34:03.142Z,100.00
2022-09-27T21:36:31.570Z,100.00
2022-09-27T21:38:58.476Z,100.00
2022-09-27T21:41:25.655Z,100.00
2022-09-27T21:43:52.294Z,100.00
2022-09-27T21:46:22.639Z,100.00
2022-09-27T21:48:51.123Z,100.00
2022-09-27T21:51:19.591Z,100.00
2022-09-27T21:53:49.943Z,100.00
2022-09-27T21:56:16.579Z,100.00
2022-09-27T21:58:43.126Z,100.00
2022-09-27T22:01:11.438Z,100.00
2022-09-27T22:03:40.640Z,100.00
2022-09-27T22:06:09.509Z,100.00
2022-09-27T22:08:36.963Z,100.00
2022-09-27T22:11:04.454Z,100.00
2022-09-27T22:13:32.108Z,100.00
2022-09-27T22:16:02.802Z,100.00
2022-09-27T22:18:29.410Z,100.00
2022-09-27T22:21:02.394Z,100.00
2022-09-27T22:23:28.964Z,100.00
2022-09-27T22:25:55.598Z,100.00
2022-09-27T22:28:22.188Z,100.00
2022-09-27T22:30:48.723Z,100.00
2022-09-27T22:33:15.370Z,100.00
2022-09-27T22:35:45.903Z,100.00
2022-09-27T22:38:13.951Z,100.00
2022-09-27T22:40:40.791Z,100.00
2022-09-27T22:43:07.562Z,100.00
2022-09-27T22:45:34.155Z,100.00
2022-09-27T22:48:01.235Z,100.00
2022-09-27T22:50:27.823Z,100.00
2022-09-27T22:52:54.477Z,100.00
2022-09-27T22:55:22.401Z,100.00
2022-09-27T22:57:48.958Z,100.00
2022-09-27T23:00:15.731Z,100.00
2022-09-27T23:02:42.315Z,100.00
2022-09-27T23:05:09.306Z,100.00
2022-09-27T23:07:35.883Z,100.00
2022-09-27T23:10:02.464Z,100.00
2022-09-27T23:12:30.719Z,100.00
2022-09-27T23:14:57.276Z,100.00
2022-09-27T23:17:23.830Z,100.00
2022-09-27T23:19:50.504Z,100.00
2022-09-27T23:22:17.121Z,100.00
2022-09-27T23:24:43.739Z,100.00
2022-09-27T23:27:10.413Z,100.00
2022-09-27T23:29:38.452Z,100.00
2022-09-27T23:32:05.388Z,100.00
2022-09-27T23:34:32.215Z,100.00
2022-09-27T23:36:58.966Z,100.00
2022-09-27T23:39:25.593Z,100.00
2022-09-27T23:41:52.252Z,100.00
2022-09-27T23:44:18.847Z,100.00
2022-09-27T23:46:46.849Z,100.00
2022-09-27T23:49:13.569Z,100.00
2022-09-27T23:51:40.380Z,100.00
2022-09-27T23:54:07.066Z,100.00
2022-09-27T23:56:33.681Z,100.00
2022-09-27T23:59:00.311Z,100.00
